createdAt,value
2022-11-22T00:02:22.702Z,99275.13
2022-11-22T00:07:25.358Z,99228.88
2022-11-22T00:12:27.988Z,99270.56
2022-11-22T00:17:31.720Z,99232.44
2022-11-22T00:22:38.487Z,99252.34
2022-11-22T00:27:44.023Z,99241.75
2022-11-22T00:32:46.738Z,99162.69
2022-11-22T00:37:49.540Z,99242.38
2022-11-22T00:42:52.087Z,99231.38
2022-11-22T00:47:54.704Z,99226.94
2022-11-22T00:52:57.242Z,99233.47
2022-11-22T00:57:59.779Z,99215.84
2022-11-22T01:03:02.372Z,99201.19
2022-11-22T01:08:05.162Z,99193.03
2022-11-22T01:13:07.764Z,99181.44
2022-11-22T01:18:10.331Z,99142.44
2022-11-22T01:23:12.920Z,99174.88
2022-11-22T01:28:15.777Z,99153.59
2022-11-22T01:33:19.231Z,99168.91
2022-11-22T01:38:21.821Z,99151.19
2022-11-22T01:43:26.420Z,99144.59
2022-11-22T01:48:44.212Z,99134.72
2022-11-22T01:53:47.221Z,99125.63
2022-11-22T01:58:56.908Z,99107.81
2022-11-22T02:04:02.813Z,99104.50
2022-11-22T02:09:12.815Z,99089.38
2022-11-22T02:14:18.801Z,99087.88
2022-11-22T02:19:28.787Z,99068.91
2022-11-22T02:24:46.998Z,99065.25
2022-11-22T02:29:49.666Z,99060.09
2022-11-22T02:34:52.339Z,99053.72
2022-11-22T02:40:03.856Z,99056.69
2022-11-22T02:45:06.859Z,99047.75
2022-11-22T02:50:09.795Z,99045.34
2022-11-22T02:55:12.590Z,99026.94
2022-11-22T03:00:15.933Z,99003.31
2022-11-22T03:05:18.586Z,98997.81
2022-11-22T03:10:21.221Z,99008.75
2022-11-22T03:15:23.936Z,98992.75
2022-11-22T03:20:27.025Z,98999.06
2022-11-22T03:25:29.599Z,98995.84
2022-11-22T03:30:32.502Z,98964.13
2022-11-22T03:35:35.117Z,98968.06
2022-11-22T03:40:38.195Z,98971.53
2022-11-22T03:45:46.355Z,98957.13
2022-11-22T03:50:49.111Z,98945.56
2022-11-22T03:55:51.796Z,98927.34
2022-11-22T04:00:54.553Z,98936.91
2022-11-22T04:05:57.272Z,98918.78
2022-11-22T04:10:59.807Z,98924.66
2022-11-22T04:16:02.668Z,98915.69
2022-11-22T04:21:23.639Z,98889.09
2022-11-22T04:26:26.330Z,98890.06
2022-11-22T04:31:47.118Z,98897.31
2022-11-22T04:36:49.700Z,98906.97
2022-11-22T04:42:13.412Z,98882.22
2022-11-22T04:47:36.168Z,98866.06
2022-11-22T04:52:54.008Z,98862.88
2022-11-22T04:57:59.970Z,98849.53
2022-11-22T05:03:04.401Z,98859.53
2022-11-22T05:08:07.781Z,98817.69
2022-11-22T05:13:10.292Z,98811.09
2022-11-22T05:18:13.119Z,98814.19
2022-11-22T05:23:34.693Z,98769.63
2022-11-22T05:28:39.282Z,98838.59
2022-11-22T05:33:43.537Z,98829.44
2022-11-22T05:38:46.757Z,98813.66
2022-11-22T05:43:49.440Z,98784.47
2022-11-22T05:48:53.276Z,98772.63
2022-11-22T05:53:55.801Z,98777.19
2022-11-22T05:58:58.450Z,98772.97
2022-11-22T06:04:01.077Z,98792.19
2022-11-22T06:09:04.532Z,98763.44
2022-11-22T06:14:09.091Z,98773.69
2022-11-22T06:19:12.851Z,98764.63
2022-11-22T06:24:15.448Z,98765.34
2022-11-22T06:29:18.445Z,98763.25
2022-11-22T06:34:21.041Z,98763.69
2022-11-22T06:39:23.597Z,98755.34
2022-11-22T06:44:26.258Z,98764.28
2022-11-22T06:49:29.317Z,98755.38
2022-11-22T06:54:32.069Z,98754.31
2022-11-22T06:59:35.023Z,98721.13
2022-11-22T07:04:46.743Z,98730.81
2022-11-22T07:09:58.864Z,98732.81
2022-11-22T07:15:01.372Z,98719.22
2022-11-22T07:20:06.432Z,98731.25
2022-11-22T07:25:09.188Z,98723.66
2022-11-22T07:30:12.175Z,98721.31
2022-11-22T07:35:14.913Z,98708.69
2022-11-22T07:40:17.479Z,98712.34
2022-11-22T07:45:20.010Z,98687.13
2022-11-22T07:50:22.613Z,98692.41
2022-11-22T07:55:27.104Z,98698.63
2022-11-22T08:00:30.052Z,98691.66
2022-11-22T08:05:32.696Z,98714.09
2022-11-22T08:10:35.376Z,98710.75
2022-11-22T08:15:37.953Z,98705.88
2022-11-22T08:20:40.520Z,98683.81
2022-11-22T08:25:43.156Z,98686.03
2022-11-22T08:30:45.695Z,98683.59
2022-11-22T08:35:51.031Z,98679.22
2022-11-22T08:40:53.657Z,98650.19
2022-11-22T08:45:57.766Z,98679.53
2022-11-22T08:51:10.991Z,98667.88
2022-11-22T08:56:16.240Z,98645.75
2022-11-22T09:01:21.461Z,98648.38
2022-11-22T09:11:48.727Z,98654.59
2022-11-22T09:16:53.389Z,98654.53
2022-11-22T09:21:56.006Z,98645.28
2022-11-22T09:26:58.553Z,98657.34
2022-11-22T09:32:01.065Z,98649.66
2022-11-22T09:37:03.652Z,98647.03
2022-11-22T09:42:33.996Z,98644.47
2022-11-22T09:53:40.347Z,98637.91
2022-11-22T09:58:57.479Z,98654.03
2022-11-22T10:04:11.202Z,98645.63
2022-11-22T10:09:33.713Z,98633.78
2022-11-22T10:14:36.384Z,98643.16
2022-11-22T10:19:46.227Z,98631.31
2022-11-22T10:24:54.607Z,98624.56
2022-11-22T10:30:14.052Z,98623.75
2022-11-22T10:35:22.784Z,98576.84
2022-11-22T10:40:41.165Z,98618.09
2022-11-22T10:45:48.675Z,98618.09
2022-11-22T10:51:08.430Z,98586.66
2022-11-22T10:56:10.919Z,98582.41
2022-11-22T11:01:13.463Z,98591.66
2022-11-22T11:06:24.498Z,98589.13
2022-11-22T11:11:38.883Z,98566.22
2022-11-22T11:16:41.691Z,98581.66
2022-11-22T11:21:44.488Z,98572.97
2022-11-22T11:26:58.512Z,98555.22
2022-11-22T11:32:10.231Z,98568.91
2022-11-22T11:37:31.568Z,98562.97
2022-11-22T11:42:35.794Z,98564.63
2022-11-22T11:47:38.374Z,98538.13
2022-11-22T11:52:49.266Z,98561.28
2022-11-22T11:57:53.612Z,98557.88
2022-11-22T12:03:01.646Z,98560.38
2022-11-22T12:08:29.355Z,98569.75
2022-11-22T12:14:04.664Z,98561.19
2022-11-22T12:25:24.344Z,98534.84
2022-11-22T12:30:17.859Z,98547.63
2022-11-22T12:35:23.881Z,98518.69
2022-11-22T12:40:42.147Z,98551.94
2022-11-22T12:45:50.479Z,98549.28
2022-11-22T12:48:23.574Z,98564.63
2022-11-22T12:50:56.668Z,98545.06
2022-11-22T12:56:17.569Z,98550.22
2022-11-22T13:01:26.507Z,98533.19
2022-11-22T13:06:35.714Z,98511.00
2022-11-22T13:11:43.004Z,98519.59
2022-11-22T13:16:45.820Z,98494.69
2022-11-22T13:22:12.386Z,98539.97
2022-11-22T13:27:30.707Z,98542.59
2022-11-22T13:32:35.076Z,98510.09
2022-11-22T13:37:52.549Z,98530.59
2022-11-22T13:43:17.900Z,98547.78
2022-11-22T13:48:39.540Z,98545.13
2022-11-22T13:53:46.784Z,98544.28
2022-11-22T13:58:52.336Z,98535.72
2022-11-22T14:04:19.645Z,98541.69
2022-11-22T14:09:56.759Z,98536.56
2022-11-22T14:15:23.922Z,98529.88
2022-11-22T14:20:38.200Z,98527.28
2022-11-22T14:25:40.829Z,98515.38
2022-11-22T14:30:54.137Z,98503.44
2022-11-22T14:36:09.792Z,98517.97
2022-11-22T14:41:27.955Z,98510.28
2022-11-22T14:46:57.220Z,98503.44
2022-11-22T14:52:00.670Z,98516.16
2022-11-22T14:57:06.442Z,98513.72
2022-11-22T15:02:15.049Z,98511.13
2022-11-22T15:09:12.138Z,98523.13
2022-11-22T15:13:13.823Z,98514.69
2022-11-22T16:02:03.765Z,98513.00
2022-11-22T16:07:07.922Z,98524.97
2022-11-22T16:12:35.785Z,98507.06
2022-11-22T16:17:48.881Z,98496.88
2022-11-22T16:23:09.817Z,98525.91
2022-11-22T16:28:18.579Z,98532.75
2022-11-22T16:33:21.407Z,98524.19
2022-11-22T16:38:25.025Z,98514.84
2022-11-22T16:43:34.455Z,98503.88
2022-11-22T16:48:36.999Z,98492.84
2022-11-22T16:53:39.560Z,98489.41
2022-11-22T16:58:42.147Z,98495.41
2022-11-22T17:03:46.549Z,98498.84
2022-11-22T17:08:51.654Z,98480.09
2022-11-22T17:13:54.738Z,98456.25
2022-11-22T17:18:57.420Z,98486.06
2022-11-22T17:24:02.364Z,98496.34
2022-11-22T17:29:06.645Z,98490.34
2022-11-22T17:34:11.408Z,98484.25
2022-11-22T17:39:14.646Z,98464.72
2022-11-22T17:44:18.047Z,98506.50
2022-11-22T17:49:20.755Z,98474.19
2022-11-22T17:54:23.645Z,98498.91
2022-11-22T17:59:26.754Z,98490.34
2022-11-22T18:04:29.717Z,98495.34
2022-11-22T18:09:34.817Z,98497.03
2022-11-22T18:14:37.779Z,98493.72
2022-11-22T18:19:40.354Z,98501.47
2022-11-22T18:24:43.014Z,98509.06
2022-11-22T18:29:45.633Z,98505.78
2022-11-22T18:34:50.034Z,98501.50
2022-11-22T18:39:52.763Z,98497.28
2022-11-22T18:44:55.309Z,98494.66
2022-11-22T18:49:58.341Z,98497.00
2022-11-22T18:55:01.286Z,98488.63
2022-11-22T19:00:05.848Z,98498.81
2022-11-22T19:05:08.664Z,98503.94
2022-11-22T19:10:11.342Z,98506.41
2022-11-22T19:15:18.351Z,98499.56
2022-11-22T19:20:53.547Z,98495.34
2022-11-22T19:25:48.383Z,98490.34
2022-11-22T19:30:50.887Z,98485.94
2022-11-22T19:36:01.367Z,98453.59
2022-11-22T19:41:11.665Z,98460.53
2022-11-22T19:46:15.055Z,98487.84
2022-11-22T19:51:17.697Z,98491.22
2022-11-22T19:56:21.139Z,98469.88
2022-11-22T20:01:26.023Z,98485.19
2022-11-22T20:06:30.063Z,98498.19
2022-11-22T20:11:32.691Z,98496.38
2022-11-22T20:16:37.182Z,98501.50
2022-11-22T20:21:40.357Z,98481.03
2022-11-22T20:26:43.812Z,98499.75
2022-11-22T20:31:46.500Z,98497.16
2022-11-22T20:36:49.135Z,98499.81
2022-11-22T20:42:11.831Z,98489.50
2022-11-22T20:47:15.173Z,98478.50
2022-11-22T20:52:17.645Z,98490.31
2022-11-22T20:57:20.295Z,98491.13
2022-11-22T21:02:22.773Z,98475.78
2022-11-22T21:07:26.912Z,98486.88
2022-11-22T21:12:31.989Z,98463.81
2022-11-22T21:17:46.073Z,98474.97
2022-11-22T21:22:58.840Z,98484.25
2022-11-22T21:28:01.414Z,98486.03
2022-11-22T21:33:06.798Z,98480.94
2022-11-22T21:38:09.503Z,98479.34
2022-11-22T21:43:12.077Z,98472.53
2022-11-22T21:48:15.372Z,98476.69
2022-11-22T21:53:17.913Z,98475.75
2022-11-22T21:58:22.423Z,98486.66
2022-11-22T22:03:25.098Z,98485.13
2022-11-22T22:08:29.558Z,98485.97
2022-11-22T22:13:32.497Z,98461.28
2022-11-22T22:18:37.992Z,98461.31
2022-11-22T22:23:41.966Z,98457.91
2022-11-22T22:28:47.919Z,98457.09
2022-11-22T22:33:54.159Z,98448.56
2022-11-22T22:38:56.650Z,98443.44
2022-11-22T22:43:59.246Z,98440.88
2022-11-22T22:49:01.907Z,98422.94
2022-11-22T22:54:04.595Z,98440.06
2022-11-22T22:59:07.989Z,98440.97
2022-11-22T23:04:10.808Z,98438.47
2022-11-22T23:09:13.487Z,98440.22
2022-11-22T23:14:18.860Z,98424.81
2022-11-22T23:19:21.909Z,98431.56
2022-11-22T23:24:24.680Z,98408.41
2022-11-22T23:29:30.910Z,98430.72
2022-11-22T23:34:33.996Z,98433.22
2022-11-22T23:39:36.529Z,98440.00
2022-11-22T23:44:39.105Z,98402.53
2022-11-22T23:49:41.727Z,98434.06
2022-11-22T23:54:44.666Z,98364.94
2022-11-22T23:59:47.282Z,98445.06
